Douglas, North Dakota
Current Conditions -  °F | °C
As of 4:54 AM on Sunday 23 Nov 2014 (Local Time) from KMOT Reporting Station
Overcast Overcast  
Wind Chill: 30°   Ceiling: 3100
Heat Index: 39°   Visibility: 10mi
Dew Point: 30°   Wind: 18mph
Humidity: 70%   Direction: 250°WSW
Pressure: 29.33"   Gusts: 26mph
Location:  47.86°N, 101.5°W
Report Text: KMOT 231054Z AUTO 25016G23KT 10SM OVC031 04/M01 A2933 RMK AO2 SLP942 T00391011
Loading
Personal Weather Stations






























Interactive Weather Map New forecast layout! Learn more

10-Day Weather Forecast

Advertisements
Track Severe Weather on mobile